Time;durP1;ratioP1;P1;durP2;ratioP2;P2;SDS_P1;SDS_P2;PMS_P1;PMS_P2;Temp;Humidity;BMP_temperature;BMP_pressure;BME280_temperature;BME280_humidity;BME280_pressure;Samples;Min_cycle;Max_cycle;Signal;HPM_P1;HPM_P2
2022/06/17 00:00:23;;;;;;;22.00;15.00;;;14.50;99.90;;;;;;5113190;28;20766;-65
2022/06/17 00:02:49;;;;;;;22.05;13.85;;;14.30;99.90;;;;;;5113268;28;20044;-66
2022/06/17 00:05:14;;;;;;;;;;;14.60;99.90;;;;;;5113612;28;20043;-65
2022/06/17 00:07:41;;;;;;;15.88;13.88;;;14.40;99.90;;;;;;5112737;28;19919;-65
2022/06/17 00:10:18;;;;;;;18.55;13.82;;;14.50;99.90;;;;;;5113009;28;20631;-65
2022/06/17 00:12:44;;;;;;;19.08;14.45;;;14.50;99.90;;;;;;5113163;28;20040;-65
2022/06/17 00:15:13;;;;;;;;;;;14.40;99.90;;;;;;5094857;28;20078;-65
2022/06/17 00:17:53;;;;;;;15.98;13.07;;;14.40;99.90;;;;;;5111891;28;19919;-66
2022/06/17 00:20:23;;;;;;;17.75;13.35;;;14.70;99.90;;;;;;5113255;28;20109;-65
2022/06/17 00:22:49;;;;;;;20.80;15.23;;;14.20;99.90;;;;;;5113239;28;20483;-66
2022/06/17 00:25:26;;;;;;;19.25;16.00;;;14.20;99.90;;;;;;5112013;28;20086;-65
2022/06/17 00:27:53;;;;;;;20.33;16.10;;;14.30;99.90;;;;;;5112946;28;20112;-64
2022/06/17 00:30:22;;;;;;;22.80;17.52;;;14.40;99.90;;;;;;5112560;28;20372;-65
2022/06/17 00:32:50;;;;;;;22.23;16.63;;;14.00;99.90;;;;;;5112291;28;20063;-65
2022/06/17 00:35:16;;;;;;;21.55;17.70;;;14.10;99.90;;;;;;5112705;28;20063;-65
2022/06/17 00:37:42;;;;;;;19.73;16.42;;;14.30;99.90;;;;;;5112380;28;20052;-65
2022/06/17 00:40:16;;;;;;;;;;;14.10;99.90;;;;;;5113088;28;20079;-65
2022/06/17 00:42:43;;;;;;;22.58;16.27;;;14.10;99.90;;;;;;5112329;28;20422;-65
2022/06/17 00:45:20;;;;;;;22.70;16.67;;;14.30;99.90;;;;;;5112483;28;20062;-65
2022/06/17 00:48:25;;;;;;;23.00;16.55;;;14.00;99.90;;;;;;5111549;28;20047;-65
2022/06/17 00:50:59;;;;;;;23.33;17.88;;;14.30;99.90;;;;;;5016417;28;20091;-65
2022/06/17 00:53:30;;;;;;;25.60;18.60;;;14.20;99.90;;;;;;5100977;28;20055;-65
2022/06/17 00:56:08;;;;;;;24.55;19.02;;;14.00;99.90;;;;;;5112542;27;20051;-66
2022/06/17 00:58:55;;;;;;;26.38;18.42;;;14.10;99.90;;;;;;5112422;28;20054;-65
2022/06/17 01:01:24;;;;;;;25.88;19.42;;;14.40;99.90;;;;;;5112422;28;20486;-64
2022/06/17 01:03:58;;;;;;;26.73;19.48;;;14.00;99.90;;;;;;5112254;28;20062;-65
2022/06/17 01:06:30;;;;;;;28.00;20.20;;;14.10;99.90;;;;;;5112174;28;20095;-65
2022/06/17 01:11:46;;;;;;;23.88;17.70;;;13.70;99.90;;;;;;5112151;28;20192;-65
2022/06/17 01:14:15;;;;;;;31.92;19.25;;;14.00;99.90;;;;;;5111971;28;20130;-64
2022/06/17 01:16:43;;;;;;;28.17;18.98;;;13.60;99.90;;;;;;5112194;28;20073;-66
2022/06/17 01:19:27;;;;;;;22.27;18.27;;;13.80;99.90;;;;;;5111652;28;20399;-66
2022/06/17 01:22:18;;;;;;;21.65;18.05;;;13.90;99.90;;;;;;5112110;28;20168;-65
2022/06/17 01:24:46;;;;;;;24.98;20.48;;;13.60;99.90;;;;;;5101060;28;20055;-65
2022/06/17 01:27:15;;;;;;;26.45;20.23;;;13.80;99.90;;;;;;5112166;28;20126;-65
2022/06/17 01:29:40;;;;;;;28.20;20.52;;;13.60;99.90;;;;;;5111824;28;20040;-65
2022/06/17 01:32:07;;;;;;;23.17;20.50;;;13.70;99.90;;;;;;5111389;28;20146;-64
2022/06/17 01:34:34;;;;;;;24.80;19.30;;;13.60;99.90;;;;;;5111960;28;20083;-65
2022/06/17 01:37:01;;;;;;;29.45;21.45;;;13.70;99.90;;;;;;5113584;28;20507;-65
2022/06/17 01:39:26;;;;;;;27.48;20.48;;;13.50;99.90;;;;;;5116129;28;20126;-65
2022/06/17 01:41:53;;;;;;;31.60;21.27;;;13.70;99.90;;;;;;5115694;28;20138;-66
2022/06/17 01:44:25;;;;;;;26.52;21.58;;;13.80;99.90;;;;;;5115828;28;20044;-65
2022/06/17 01:46:56;;;;;;;27.20;21.42;;;14.30;99.90;;;;;;5115862;28;20051;-65
2022/06/17 01:49:27;;;;;;;27.83;20.52;;;14.00;99.90;;;;;;5114862;28;20475;-65
2022/06/17 01:51:59;;;;;;;26.30;21.00;;;13.70;99.90;;;;;;5115537;28;20399;-65
2022/06/17 01:54:30;;;;;;;27.83;21.50;;;13.70;99.90;;;;;;5115405;28;20050;-65
2022/06/17 01:56:59;;;;;;;30.85;22.00;;;14.10;99.90;;;;;;5114217;28;20106;-66
2022/06/17 01:59:34;;;;;;;31.50;21.58;;;13.90;99.90;;;;;;5114614;28;20139;-65
2022/06/17 02:02:02;;;;;;;29.05;21.50;;;13.60;99.90;;;;;;5115358;28;20050;-66
2022/06/17 02:04:33;;;;;;;28.75;19.83;;;13.90;99.90;;;;;;5115557;28;20510;-66
2022/06/17 02:07:01;;;;;;;25.35;20.77;;;13.80;99.90;;;;;;5115551;28;20058;-64
2022/06/17 02:09:27;;;;;;;27.42;21.88;;;13.80;99.90;;;;;;5115506;28;20471;-66
2022/06/17 02:11:53;;;;;;;25.92;20.45;;;13.90;99.90;;;;;;5115335;28;20088;-64
2022/06/17 02:14:20;;;;;;;25.33;20.23;;;13.80;99.90;;;;;;5115587;28;20087;-65
2022/06/17 02:16:54;;;;;;;24.92;20.65;;;13.70;99.90;;;;;;5115692;28;20055;-64
2022/06/17 02:19:23;;;;;;;24.77;20.63;;;13.70;99.90;;;;;;5115713;28;20147;-64
2022/06/17 02:22:11;;;;;;;27.63;19.92;;;13.40;99.90;;;;;;5115315;28;20782;-65
2022/06/17 02:24:38;;;;;;;25.75;20.90;;;13.50;99.90;;;;;;5113756;28;20479;-65
2022/06/17 02:27:08;;;;;;;28.80;20.95;;;13.70;99.90;;;;;;5115457;28;20165;-66
2022/06/17 02:29:37;;;;;;;25.98;20.98;;;13.90;99.90;;;;;;5114040;28;20043;-64
2022/06/17 02:32:07;;;;;;;24.92;20.13;;;13.70;99.90;;;;;;5114901;28;20051;-65
2022/06/17 02:34:35;;;;;;;25.95;20.88;;;13.70;99.90;;;;;;5115087;28;20400;-65
2022/06/17 02:37:10;;;;;;;28.75;20.48;;;13.70;99.90;;;;;;5114855;28;20469;-65
2022/06/17 02:39:41;;;;;;;26.52;20.65;;;13.50;99.90;;;;;;5114934;28;20051;-64
2022/06/17 02:42:18;;;;;;;31.25;19.60;;;13.70;99.90;;;;;;5114879;28;20105;-65
2022/06/17 02:44:44;;;;;;;27.45;20.83;;;13.40;99.90;;;;;;5114890;28;20415;-65
2022/06/17 02:47:10;;;;;;;25.08;20.40;;;13.40;99.90;;;;;;5114971;28;20073;-65
2022/06/17 02:49:37;;;;;;;28.35;20.33;;;13.70;99.90;;;;;;5112501;28;20051;-65
2022/06/17 02:52:09;;;;;;;25.65;20.20;;;13.30;99.90;;;;;;5114595;28;20039;-65
2022/06/17 02:54:42;;;;;;;24.92;18.90;;;13.60;99.90;;;;;;5114644;28;20456;-65
2022/06/17 02:57:24;;;;;;;24.52;18.35;;;13.60;99.90;;;;;;5114618;28;20141;-65
2022/06/17 03:00:10;;;;;;;22.35;18.35;;;13.50;99.90;;;;;;5114587;28;20093;-65
2022/06/17 03:02:43;;;;;;;24.85;19.15;;;13.50;99.90;;;;;;5112614;28;20135;-65
2022/06/17 03:05:23;;;;;;;26.13;19.13;;;13.70;99.90;;;;;;5112957;28;20036;-65
2022/06/17 03:07:52;;;;;;;28.25;19.73;;;13.80;99.90;;;;;;5114399;28;20165;-64
2022/06/17 03:10:24;;;;;;;22.90;19.30;;;13.60;99.90;;;;;;5114286;28;20051;-65
2022/06/17 03:12:56;;;;;;;23.48;19.10;;;13.90;99.90;;;;;;5114280;28;20128;-65
2022/06/17 03:15:23;;;;;;;28.40;18.58;;;14.10;99.90;;;;;;5114273;28;20148;-65
2022/06/17 03:17:48;;;;;;;19.90;17.15;;;14.20;99.90;;;;;;5114084;28;20188;-66
2022/06/17 03:20:24;;;;;;;23.80;18.02;;;13.50;99.90;;;;;;5114053;28;20134;-65
2022/06/17 03:22:57;;;;;;;22.70;17.92;;;14.10;99.90;;;;;;5113845;28;20038;-65
2022/06/17 03:25:28;;;;;;;25.60;17.08;;;13.70;99.90;;;;;;5114016;28;20078;-65
2022/06/17 03:28:02;;;;;;;20.85;17.30;;;13.90;99.90;;;;;;5113967;28;20044;-65
2022/06/17 03:30:33;;;;;;;20.88;17.10;;;13.80;99.90;;;;;;5114218;28;20066;-64
2022/06/17 03:33:22;;;;;;;23.80;16.90;;;13.90;99.90;;;;;;5113836;28;20074;-64
2022/06/17 03:35:53;;;;;;;23.27;16.02;;;13.70;99.90;;;;;;5113313;28;20047;-64
2022/06/17 03:38:31;;;;;;;22.25;16.48;;;13.80;99.90;;;;;;5113908;28;20148;-64
2022/06/17 03:41:03;;;;;;;22.08;15.63;;;13.90;99.90;;;;;;5113710;28;20051;-65
2022/06/17 03:43:35;;;;;;;20.58;15.85;;;14.80;99.90;;;;;;5113770;28;20122;-65
2022/06/17 03:46:03;;;;;;;20.58;14.30;;;14.10;99.90;;;;;;5113766;28;20431;-65
2022/06/17 03:48:38;;;;;;;16.85;14.13;;;13.90;99.90;;;;;;5113342;28;20047;-64
2022/06/17 03:51:04;;;;;;;16.60;13.88;;;13.90;99.90;;;;;;5112338;28;20055;-65
2022/06/17 03:53:33;;;;;;;20.77;14.75;;;13.90;99.90;;;;;;5113417;28;20047;-65
2022/06/17 03:56:07;;;;;;;17.40;13.57;;;14.00;99.90;;;;;;5113332;28;20097;-65
2022/06/17 03:58:33;;;;;;;18.23;14.20;;;14.00;99.90;;;;;;5113384;28;20426;-65
2022/06/17 04:01:16;;;;;;;16.55;12.85;;;14.30;99.90;;;;;;5112770;28;20039;-64
2022/06/17 04:03:48;;;;;;;17.08;13.82;;;14.30;99.90;;;;;;5113400;28;20446;-65
2022/06/17 04:06:21;;;;;;;16.35;13.55;;;14.40;99.90;;;;;;5113313;28;20388;-65
2022/06/17 04:08:57;;;;;;;20.05;13.38;;;14.70;99.90;;;;;;5113209;28;20054;-64
2022/06/17 04:11:38;;;;;;;16.63;13.45;;;14.40;99.90;;;;;;5113012;28;20130;-65
2022/06/17 04:14:06;;;;;;;14.43;12.57;;;14.20;99.90;;;;;;5113330;28;20051;-64
2022/06/17 04:16:46;;;;;;;15.55;11.70;;;14.50;99.90;;;;;;5113191;28;20039;-64
2022/06/17 04:19:32;;;;;;;15.30;12.15;;;14.80;99.90;;;;;;5112789;28;20422;-64
2022/06/17 04:22:03;;;;;;;18.05;12.18;;;15.00;99.90;;;;;;5112230;28;20143;-64
2022/06/17 04:24:30;;;;;;;15.60;11.55;;;14.60;99.90;;;;;;5113001;28;20498;-64
2022/06/17 04:27:00;;;;;;;14.98;11.73;;;14.90;99.90;;;;;;5111858;28;20047;-64
2022/06/17 04:29:42;;;;;;;16.52;11.02;;;14.80;99.90;;;;;;5112661;28;20047;-64
2022/06/17 04:32:24;;;;;;;15.15;10.63;;;14.80;99.90;;;;;;5112659;28;20059;-65
2022/06/17 04:34:50;;;;;;;17.10;10.50;;;14.80;99.90;;;;;;5112780;28;20185;-64
2022/06/17 04:37:20;;;;;;;15.60;10.57;;;15.50;99.90;;;;;;5112762;28;20134;-65
2022/06/17 04:39:55;;;;;;;13.98;11.15;;;15.00;99.90;;;;;;5112549;28;20054;-64
2022/06/17 04:42:35;;;;;;;16.20;10.45;;;15.20;99.90;;;;;;5112721;28;20628;-65
2022/06/17 04:45:02;;;;;;;19.48;11.15;;;14.80;99.90;;;;;;5112559;28;20185;-64
2022/06/17 04:47:29;;;;;;;18.38;11.60;;;14.90;99.90;;;;;;5112299;28;20058;-65
2022/06/17 04:50:03;;;;;;;13.60;10.90;;;15.00;99.90;;;;;;5112563;28;20052;-64
2022/06/17 04:52:36;;;;;;;13.68;11.35;;;14.80;99.90;;;;;;5112437;28;20086;-64
2022/06/17 04:55:06;;;;;;;21.90;13.07;;;15.10;99.90;;;;;;5112324;28;20415;-65
2022/06/17 04:57:32;;;;;;;14.40;11.30;;;14.90;99.90;;;;;;5112474;28;20055;-64
2022/06/17 04:59:59;;;;;;;16.20;12.13;;;14.90;99.90;;;;;;5112313;28;20049;-64
2022/06/17 05:02:31;;;;;;;14.40;11.38;;;14.90;99.90;;;;;;5112002;28;20052;-65
2022/06/17 05:05:00;;;;;;;12.93;10.05;;;15.00;99.90;;;;;;5112474;28;20054;-64
2022/06/17 05:07:29;;;;;;;15.98;11.50;;;15.10;99.90;;;;;;5111872;28;20144;-65
2022/06/17 05:10:05;;;;;;;15.32;10.70;;;14.80;99.90;;;;;;5111937;28;20058;-64
2022/06/17 05:12:42;;;;;;;13.48;10.50;;;15.20;99.90;;;;;;5115082;28;20055;-65
2022/06/17 05:15:15;;;;;;;14.40;10.65;;;15.00;99.90;;;;;;5116468;27;20433;-64
2022/06/17 05:17:40;;;;;;;13.13;10.65;;;15.10;99.90;;;;;;5116575;27;20054;-65
2022/06/17 05:20:10;;;;;;;14.05;10.82;;;15.10;99.90;;;;;;5115945;28;20134;-64
2022/06/17 05:22:40;;;;;;;12.65;10.30;;;14.90;99.90;;;;;;5116454;28;20085;-64
2022/06/17 05:25:12;;;;;;;17.08;10.73;;;15.00;99.90;;;;;;5116351;28;20039;-65
2022/06/17 05:27:37;;;;;;;17.77;11.07;;;15.00;99.90;;;;;;5116083;28;20556;-64
2022/06/17 05:30:03;;;;;;;;;;;15.10;99.90;;;;;;5116734;28;20043;-64
2022/06/17 05:32:30;;;;;;;14.00;10.57;;;15.30;99.90;;;;;;5116018;28;20305;-64
2022/06/17 05:34:56;;;;;;;14.02;10.68;;;15.50;99.90;;;;;;5116108;28;20047;-64
2022/06/17 05:37:22;;;;;;;;;;;15.40;99.90;;;;;;5116413;28;20161;-65
2022/06/17 05:39:47;;;;;;;15.40;11.60;;;15.30;99.90;;;;;;5115836;28;20259;-65
2022/06/17 05:42:13;;;;;;;;;;;15.40;99.90;;;;;;5115179;28;20097;-65
2022/06/17 05:44:39;;;;;;;12.57;10.38;;;15.50;99.90;;;;;;5115848;28;19920;-65
2022/06/17 05:47:06;;;;;;;12.63;10.10;;;15.50;99.90;;;;;;5115934;28;20475;-64
2022/06/17 05:49:32;;;;;;;14.23;10.57;;;15.40;99.90;;;;;;5115753;27;20052;-64
2022/06/17 05:51:58;;;;;;;13.57;10.70;;;15.40;99.90;;;;;;5115694;28;20118;-65
2022/06/17 05:54:24;;;;;;;17.50;10.98;;;15.60;99.90;;;;;;5115603;28;20047;-64
2022/06/17 05:56:50;;;;;;;14.52;10.45;;;15.70;99.90;;;;;;5115725;28;20429;-64
2022/06/17 05:59:17;;;;;;;;;;;15.50;99.90;;;;;;5115585;28;20139;-64
2022/06/17 06:01:43;;;;;;;13.90;10.67;;;15.70;99.90;;;;;;5114491;28;19931;-64
2022/06/17 06:04:09;;;;;;;16.33;11.50;;;15.90;99.90;;;;;;5115537;28;20471;-64
2022/06/17 06:06:34;;;;;;;;;;;15.90;99.90;;;;;;5116119;28;20073;-64
2022/06/17 06:09:00;;;;;;;13.80;10.13;;;16.30;99.90;;;;;;5115656;28;19919;-65
2022/06/17 06:11:26;;;;;;;;;;;16.10;99.90;;;;;;5116174;28;20395;-64
2022/06/17 06:13:51;;;;;;;14.18;11.18;;;16.00;99.90;;;;;;5115578;28;20390;-64
2022/06/17 06:16:17;;;;;;;;;;;16.10;99.90;;;;;;5114611;28;20047;-64
2022/06/17 06:18:45;;;;;;;15.43;10.77;;;16.40;99.90;;;;;;5115272;28;19930;-64
2022/06/17 06:21:11;;;;;;;14.88;10.98;;;16.40;99.90;;;;;;5115356;28;20050;-64
2022/06/17 06:23:37;;;;;;;;;;;16.40;99.90;;;;;;5115581;28;20043;-64
2022/06/17 06:26:05;;;;;;;12.43;10.00;;;16.50;99.90;;;;;;5115262;28;19923;-64
2022/06/17 06:28:31;;;;;;;14.35;10.80;;;16.70;99.90;;;;;;5115162;28;20404;-64
2022/06/17 06:31:01;;;;;;;;;;;16.60;99.90;;;;;;5115464;28;20188;-64
2022/06/17 06:33:26;;;;;;;16.25;10.40;;;16.90;99.90;;;;;;5113317;28;19919;-64
2022/06/17 06:35:52;;;;;;;13.55;10.25;;;17.00;99.90;;;;;;5114925;27;20048;-64
2022/06/17 06:38:18;;;;;;;;;;;16.80;99.90;;;;;;5115297;28;20051;-65
2022/06/17 06:40:44;;;;;;;14.48;10.60;;;17.00;99.90;;;;;;5114751;27;19923;-64
2022/06/17 06:43:14;;;;;;;;;;;17.30;99.90;;;;;;5115300;28;20051;-64
2022/06/17 06:45:40;;;;;;;15.30;10.63;;;17.60;99.90;;;;;;5114911;28;20092;-65
2022/06/17 06:48:08;;;;;;;15.82;10.60;;;17.60;99.90;;;;;;5115161;28;20070;-64
2022/06/17 06:50:35;;;;;;;13.90;10.55;;;17.50;99.90;;;;;;5114710;28;20044;-64
2022/06/17 06:53:01;;;;;;;13.30;10.93;;;17.80;99.90;;;;;;5114656;28;20082;-69
2022/06/17 06:55:27;;;;;;;;;;;17.50;99.90;;;;;;5114874;28;20082;-64
2022/06/17 06:57:58;;;;;;;14.98;10.00;;;17.50;99.90;;;;;;5114660;28;19959;-64
2022/06/17 07:00:36;;;;;;;14.57;10.38;;;17.60;99.90;;;;;;5114589;28;20085;-64
2022/06/17 07:03:02;;;;;;;12.38;10.25;;;17.50;99.90;;;;;;5114231;28;20135;-64
2022/06/17 07:05:29;;;;;;;12.05;9.35;;;17.90;99.90;;;;;;5113186;28;20051;-65
2022/06/17 07:07:55;;;;;;;12.80;9.90;;;17.80;99.90;;;;;;5114230;27;20054;-64
2022/06/17 07:10:23;;;;;;;;;;;17.60;99.90;;;;;;5114843;28;20047;-64
2022/06/17 07:12:49;;;;;;;13.80;9.65;;;18.10;99.90;;;;;;5114123;27;19924;-65
2022/06/17 07:15:15;;;;;;;16.02;9.88;;;18.00;99.90;;;;;;5114272;28;20126;-64
2022/06/17 07:17:57;;;;;;;12.95;9.73;;;18.00;99.90;;;;;;5114502;28;20180;-64
2022/06/17 07:20:24;;;;;;;11.82;9.43;;;18.30;99.90;;;;;;5101969;28;20048;-64
2022/06/17 07:22:51;;;;;;;13.90;10.48;;;18.30;99.90;;;;;;5102527;27;20213;-65
2022/06/17 07:25:18;;;;;;;17.30;9.35;;;18.10;99.90;;;;;;5108197;28;20348;-64
2022/06/17 07:27:44;;;;;;;14.90;9.63;;;18.40;99.90;;;;;;5109905;28;20048;-65
2022/06/17 07:30:20;;;;;;;11.40;9.13;;;18.90;99.90;;;;;;5109714;28;20105;-64
2022/06/17 07:32:46;;;;;;;14.73;9.02;;;18.50;99.90;;;;;;5110037;28;20134;-66
2022/06/17 07:35:13;;;;;;;12.30;9.25;;;18.90;99.90;;;;;;5108465;28;20055;-69
2022/06/17 07:40:23;;;;;;;13.35;9.15;;;18.80;99.90;;;;;;5110468;28;20146;-67
2022/06/17 07:42:49;;;;;;;12.80;9.30;;;19.10;99.90;;;;;;5109662;28;20543;-65
2022/06/17 07:45:18;;;;;;;12.32;9.18;;;19.20;99.90;;;;;;5107350;28;20071;-66
2022/06/17 07:47:44;;;;;;;11.73;9.32;;;19.20;99.90;;;;;;5108715;28;20439;-66
2022/06/17 07:50:16;;;;;;;12.77;9.07;;;19.20;99.90;;;;;;5091930;28;20118;-66
2022/06/17 07:52:42;;;;;;;14.48;9.38;;;19.50;99.90;;;;;;5105104;28;20059;-66
2022/06/17 07:55:08;;;;;;;11.90;8.75;;;19.40;99.90;;;;;;5090421;28;20058;-65
2022/06/17 07:57:34;;;;;;;13.40;9.00;;;19.80;99.90;;;;;;5109980;28;20048;-66
2022/06/17 07:59:59;;;;;;;12.85;8.70;;;19.80;99.90;;;;;;5109303;28;20130;-65
2022/06/17 08:02:25;;;;;;;15.25;8.75;;;19.70;99.90;;;;;;5109555;28;20044;-65
2022/06/17 08:04:51;;;;;;;12.50;9.00;;;19.50;99.90;;;;;;5108727;28;20040;-66
2022/06/17 08:07:17;;;;;;;13.38;9.27;;;19.80;99.90;;;;;;5109269;28;20504;-66
2022/06/17 08:09:43;;;;;;;12.15;9.25;;;20.10;99.90;;;;;;5109539;28;20048;-65
2022/06/17 08:12:13;;;;;;;14.45;8.88;;;19.90;99.90;;;;;;5108173;28;20054;-67
2022/06/17 08:14:43;;;;;;;16.42;8.85;;;20.30;99.90;;;;;;5104987;28;20170;-67
2022/06/17 08:17:14;;;;;;;13.02;8.98;;;19.90;99.90;;;;;;5109645;28;20104;-67
2022/06/17 08:19:41;;;;;;;12.38;8.63;;;20.40;99.90;;;;;;5109568;28;20062;-71
2022/06/17 08:22:07;;;;;;;12.00;8.75;;;20.80;99.90;;;;;;5108252;27;20112;-64
2022/06/17 08:24:33;;;;;;;16.13;8.10;;;20.80;99.90;;;;;;5111685;28;20085;-62
2022/06/17 08:26:59;;;;;;;12.43;8.68;;;20.90;99.90;;;;;;5111222;27;20091;-65
2022/06/17 08:29:26;;;;;;;14.77;9.18;;;20.70;99.90;;;;;;5111487;28;20119;-63
2022/06/17 08:31:52;;;;;;;14.35;8.27;;;20.80;99.90;;;;;;5111051;28;20052;-65
2022/06/17 08:34:18;;;;;;;11.77;7.88;;;21.30;99.90;;;;;;5111110;28;20047;-64
2022/06/17 08:36:45;;;;;;;12.55;8.82;;;21.30;99.90;;;;;;5111042;28;20758;-64
2022/06/17 08:39:13;;;;;;;12.05;7.53;;;21.20;99.90;;;;;;5111549;28;20051;-65
2022/06/17 08:42:00;;;;;;;12.18;7.88;;;20.90;99.90;;;;;;5110699;28;20577;-64
2022/06/17 08:44:38;;;;;;;11.18;7.78;;;20.70;99.90;;;;;;5111398;28;20047;-63
2022/06/17 08:47:22;;;;;;;11.50;7.70;;;20.90;99.90;;;;;;5110661;28;20684;-68
2022/06/17 08:50:21;;;;;;;9.57;7.68;;;20.80;99.90;;;;;;5111226;28;20044;-64
2022/06/17 08:52:58;;;;;;;10.57;8.07;;;20.80;99.90;;;;;;5109349;28;20039;-64
2022/06/17 08:55:45;;;;;;;11.95;8.23;;;21.10;99.90;;;;;;5111266;28;20043;-64
2022/06/17 08:58:11;;;;;;;9.85;7.93;;;21.40;99.90;;;;;;5111373;28;20044;-67
2022/06/17 09:00:52;;;;;;;11.57;7.72;;;20.90;99.90;;;;;;5111027;28;20054;-64
2022/06/17 09:03:48;;;;;;;13.07;8.00;;;20.90;99.90;;;;;;5111195;28;20086;-68
2022/06/17 09:06:38;;;;;;;10.23;7.65;;;21.10;99.90;;;;;;5110550;28;20134;-65
2022/06/17 09:09:26;;;;;;;11.63;7.63;;;21.10;99.90;;;;;;5110762;28;20050;-65
2022/06/17 09:11:51;;;;;;;14.43;8.65;;;21.20;99.90;;;;;;5108549;28;20056;-65
2022/06/17 09:14:29;;;;;;;12.50;8.70;;;21.30;99.90;;;;;;5111129;28;20138;-65
2022/06/17 09:17:12;;;;;;;12.25;7.68;;;21.70;99.90;;;;;;5111151;28;20134;-65
2022/06/17 09:19:43;;;;;;;15.13;8.73;;;21.40;99.90;;;;;;5111408;28;20376;-65
2022/06/17 09:22:16;;;;;;;11.88;7.82;;;21.70;99.90;;;;;;5110549;28;20058;-65
2022/06/17 09:24:43;;;;;;;12.60;8.52;;;22.60;99.90;;;;;;5110584;28;20500;-65
2022/06/17 09:27:19;;;;;;;11.95;8.57;;;22.70;99.90;;;;;;5101623;28;20150;-63
2022/06/17 09:29:56;;;;;;;14.48;8.88;;;22.70;99.90;;;;;;5106829;28;20050;-65
2022/06/17 09:32:43;;;;;;;12.82;8.48;;;22.90;99.90;;;;;;5107196;28;20064;-64
2022/06/17 09:35:29;;;;;;;11.20;7.97;;;22.90;99.90;;;;;;5107137;28;20059;-63
2022/06/17 09:38:20;;;;;;;14.18;9.02;;;22.80;99.90;;;;;;5109212;28;20043;-64
2022/06/17 09:41:01;;;;;;;13.48;8.05;;;23.00;99.90;;;;;;5105062;28;20123;-64
2022/06/17 09:43:32;;;;;;;11.88;7.50;;;22.90;99.90;;;;;;5107985;28;20088;-63
2022/06/17 09:46:11;;;;;;;14.38;8.55;;;23.00;99.90;;;;;;5106059;28;20053;-64
2022/06/17 09:48:55;;;;;;;13.05;7.32;;;22.60;99.90;;;;;;5106773;28;20050;-65
2022/06/17 09:51:26;;;;;;;15.45;8.13;;;22.40;99.90;;;;;;5107073;28;20047;-64
2022/06/17 09:54:27;;;;;;;16.67;7.55;;;22.50;99.90;;;;;;5107482;28;20122;-65
2022/06/17 09:57:18;;;;;;;17.35;8.02;;;22.60;99.90;;;;;;5071691;28;20067;-64
2022/06/17 10:00:03;;;;;;;15.88;8.38;;;22.50;99.90;;;;;;5113142;28;20142;-64
2022/06/17 10:02:49;;;;;;;15.63;8.23;;;22.10;99.90;;;;;;5115747;28;20054;-63
2022/06/17 10:05:33;;;;;;;12.95;7.65;;;22.00;99.90;;;;;;5115533;28;20050;-63
2022/06/17 10:08:35;;;;;;;15.23;8.48;;;22.20;99.90;;;;;;5115623;28;20043;-63
2022/06/17 10:12:08;;;;;;;13.80;7.38;;;22.30;99.90;;;;;;5091739;28;20060;-63
2022/06/17 10:14:49;;;;;;;12.48;6.90;;;22.10;99.90;;;;;;5044401;28;20063;-64
2022/06/17 10:20:16;;;;;;;9.43;6.22;;;22.30;99.90;;;;;;5115226;28;20078;-64
2022/06/17 10:22:51;;;;;;;11.27;6.82;;;22.00;99.90;;;;;;5115363;28;20136;-63
2022/06/17 10:25:40;;;;;;;11.10;6.97;;;22.60;99.90;;;;;;5115432;28;20047;-63
2022/06/17 10:28:14;;;;;;;13.38;6.60;;;22.40;99.90;;;;;;5113678;28;20044;-64
2022/06/17 10:30:58;;;;;;;10.48;6.55;;;22.70;99.90;;;;;;5114927;28;20491;-65
2022/06/17 10:33:25;;;;;;;12.40;6.30;;;23.00;99.90;;;;;;5115143;27;20091;-63
2022/06/17 10:35:51;;;;;;;12.00;6.57;;;23.10;99.90;;;;;;5103566;28;20052;-63
2022/06/17 10:38:31;;;;;;;10.57;6.80;;;23.20;99.90;;;;;;5114973;28;20376;-63
2022/06/17 10:40:57;;;;;;;10.20;7.40;;;23.20;99.90;;;;;;5114892;28;20076;-64
2022/06/17 10:43:32;;;;;;;13.90;7.35;;;23.50;99.90;;;;;;5105959;28;20048;-65
2022/06/17 10:45:59;;;;;;;10.35;6.82;;;24.50;99.90;;;;;;5110785;28;20054;-63
2022/06/17 10:48:31;;;;;;;10.52;6.57;;;23.90;99.90;;;;;;5111523;28;20090;-63
2022/06/17 10:50:59;;;;;;;11.25;6.70;;;24.10;99.90;;;;;;5110476;28;20048;-65
2022/06/17 10:53:35;;;;;;;13.77;6.95;;;23.60;99.90;;;;;;5107440;28;20111;-64
2022/06/17 10:56:09;;;;;;;10.77;7.05;;;24.60;99.90;;;;;;5109605;27;20483;-63
2022/06/17 10:58:35;;;;;;;8.68;7.18;;;24.30;99.90;;;;;;5111281;28;20093;-66
2022/06/17 11:01:10;;;;;;;8.43;6.95;;;24.30;99.90;;;;;;5114177;28;20051;-64
2022/06/17 11:03:39;;;;;;;12.57;7.15;;;24.70;99.90;;;;;;5110584;27;20093;-65
2022/06/17 11:06:22;;;;;;;9.65;7.00;;;25.10;99.90;;;;;;5113173;27;20058;-64
2022/06/17 11:08:48;;;;;;;8.70;6.72;;;25.30;99.90;;;;;;5109938;28;20050;-67
2022/06/17 11:14:03;;;;;;;11.68;7.53;;;25.40;99.90;;;;;;5112408;28;20058;-63
2022/06/17 11:16:36;;;;;;;9.63;7.32;;;25.10;99.90;;;;;;5111580;28;20454;-63
2022/06/17 11:19:10;;;;;;;7.97;6.68;;;25.20;99.90;;;;;;5112398;28;20043;-68
2022/06/17 11:21:42;;;;;;;8.82;6.40;;;25.50;99.90;;;;;;5111439;28;20051;-67
2022/06/17 11:24:23;;;;;;;11.18;6.63;;;25.30;99.90;;;;;;5110323;28;20118;-65
2022/06/17 11:27:25;;;;;;;11.95;6.57;;;25.20;99.90;;;;;;5110385;28;20046;-66
2022/06/17 11:29:53;;;;;;;11.57;6.45;;;25.30;99.90;;;;;;5110723;28;20411;-71
2022/06/17 11:32:31;;;;;;;12.88;6.07;;;25.10;99.90;;;;;;5111883;28;20399;-63
2022/06/17 11:35:01;;;;;;;9.10;5.65;;;24.90;99.90;;;;;;5110932;28;20157;-67
2022/06/17 11:37:33;;;;;;;8.98;6.35;;;24.90;99.90;;;;;;5101972;28;20158;-65
2022/06/17 11:40:11;;;;;;;11.75;6.50;;;25.00;99.90;;;;;;5092778;28;20044;-65
2022/06/17 11:43:06;;;;;;;9.05;5.57;;;25.40;99.90;;;;;;5110211;28;20093;-64
2022/06/17 11:45:39;;;;;;;11.05;4.85;;;25.50;99.90;;;;;;5093686;28;20056;-65
2022/06/17 11:48:11;;;;;;;11.80;5.15;;;25.80;99.90;;;;;;5092522;28;20044;-65
2022/06/17 11:50:42;;;;;;;8.00;5.68;;;25.80;99.90;;;;;;5092985;28;20083;-64
2022/06/17 11:53:17;;;;;;;10.38;5.75;;;26.20;99.90;;;;;;5092921;28;20071;-60
2022/06/17 11:55:45;;;;;;;10.07;5.57;;;26.00;99.90;;;;;;5092927;28;20044;-66
2022/06/17 11:58:12;;;;;;;7.68;4.97;;;25.90;99.90;;;;;;5093134;28;20069;-64
2022/06/17 12:00:46;;;;;;;10.43;4.70;;;25.90;99.90;;;;;;5094649;28;20051;-65
2022/06/17 12:03:14;;;;;;;12.07;4.30;;;26.10;99.90;;;;;;5111724;27;20077;-72
2022/06/17 12:05:41;;;;;;;10.90;4.85;;;25.90;99.90;;;;;;5112612;28;20084;-69
2022/06/17 12:08:07;;;;;;;12.35;4.40;;;26.60;99.90;;;;;;5112630;28;20055;-65
2022/06/17 12:10:58;;;;;;;9.45;4.60;;;26.50;99.90;;;;;;5112519;28;20055;-67
2022/06/17 12:13:51;;;;;;;13.95;5.10;;;26.70;99.90;;;;;;5109093;28;20104;-66
2022/06/17 12:16:43;;;;;;;7.88;4.50;;;27.00;99.90;;;;;;5112202;28;20078;-68
2022/06/17 12:19:20;;;;;;;8.02;5.03;;;27.10;99.90;;;;;;5108836;28;20406;-70
2022/06/17 12:22:08;;;;;;;9.73;4.25;;;27.20;99.90;;;;;;5112104;28;20115;-66
2022/06/17 12:24:48;;;;;;;8.00;3.65;;;27.20;99.90;;;;;;5129942;27;20126;-65
2022/06/17 12:27:23;;;;;;;8.27;4.05;;;27.20;99.90;;;;;;5132923;27;20043;-67
2022/06/17 12:30:08;;;;;;;9.90;4.03;;;26.90;99.90;;;;;;5132803;27;20055;-65
2022/06/17 12:33:01;;;;;;;8.55;3.90;;;26.70;99.90;;;;;;5131844;27;20062;-67
2022/06/17 12:35:37;;;;;;;10.38;4.70;;;26.60;99.90;;;;;;5132568;27;20055;-65
2022/06/17 12:38:08;;;;;;;;;;;26.30;99.90;;;;;;5133067;27;20042;-66
2022/06/17 12:40:45;;;;;;;11.18;5.00;;;26.40;99.90;;;;;;5132348;27;19963;-66
2022/06/17 12:43:28;;;;;;;7.53;4.93;;;26.00;99.90;;;;;;5132377;27;20131;-65
2022/06/17 12:45:54;;;;;;;9.27;4.90;;;26.00;99.90;;;;;;5132733;27;20532;-65
2022/06/17 12:48:52;;;;;;;6.63;4.70;;;25.90;99.90;;;;;;5133078;27;20051;-65
2022/06/17 12:54:20;;;;;;;7.30;3.95;;;25.60;99.90;;;;;;5133012;27;20142;-66
2022/06/17 12:57:12;;;;;;;6.35;4.00;;;25.30;99.90;;;;;;5133115;27;20079;-66
2022/06/17 12:59:48;;;;;;;4.25;3.60;;;25.30;99.90;;;;;;5133013;27;20046;-66
2022/06/17 13:02:30;;;;;;;7.75;3.90;;;25.40;99.90;;;;;;5132977;27;20050;-67
2022/06/17 13:05:05;;;;;;;5.43;3.60;;;25.30;99.90;;;;;;5132924;27;20047;-66
2022/06/17 13:07:36;;;;;;;6.82;3.65;;;25.10;99.90;;;;;;5132901;27;20051;-66
2022/06/17 13:13:04;;;;;;;8.73;3.80;;;25.40;99.90;;;;;;5132191;28;20047;-65
2022/06/17 13:15:37;;;;;;;8.75;4.22;;;25.40;99.90;;;;;;5132240;27;20043;-66
2022/06/17 13:18:08;;;;;;;5.95;3.83;;;25.20;99.90;;;;;;5132162;27;20134;-67
2022/06/17 13:20:43;;;;;;;6.15;4.07;;;25.50;99.90;;;;;;5132215;27;20046;-67
2022/06/17 13:23:50;;;;;;;10.30;4.53;;;25.20;99.90;;;;;;5132051;28;20043;-65